createdAt,value
2018-05-11T00:02:04.176Z,3.95
2018-05-11T00:04:31.651Z,3.97
2018-05-11T00:06:59.135Z,5.47
2018-05-11T00:09:26.605Z,3.17
2018-05-11T00:11:54.103Z,3.30
2018-05-11T00:14:21.591Z,6.22
2018-05-11T00:16:49.090Z,3.87
2018-05-11T00:19:16.580Z,3.75
2018-05-11T00:21:44.053Z,3.50
2018-05-11T00:24:11.545Z,3.87
2018-05-11T00:26:39.028Z,3.70
2018-05-11T00:29:06.506Z,3.87
2018-05-11T00:31:34.024Z,3.75
2018-05-11T00:34:01.487Z,3.83
2018-05-11T00:36:29.014Z,6.07
2018-05-11T00:38:56.486Z,4.50
2018-05-11T00:41:23.966Z,3.72
2018-05-11T00:43:51.462Z,3.35
2018-05-11T00:46:18.974Z,4.55
2018-05-11T00:48:46.463Z,4.75
2018-05-11T00:51:13.922Z,4.35
2018-05-11T00:53:41.420Z,3.90
2018-05-11T00:56:08.908Z,5.65
2018-05-11T00:58:36.378Z,5.28
2018-05-11T01:01:03.862Z,3.92
2018-05-11T01:03:31.348Z,6.40
2018-05-11T01:05:58.845Z,5.45
2018-05-11T01:08:26.341Z,6.03
2018-05-11T01:10:53.838Z,7.62
2018-05-11T01:13:21.341Z,8.40
2018-05-11T01:15:48.819Z,5.65
2018-05-11T01:18:16.305Z,6.37
2018-05-11T01:20:43.828Z,6.70
2018-05-11T01:23:11.336Z,5.12
2018-05-11T01:25:38.827Z,8.43
2018-05-11T01:28:06.295Z,9.00
2018-05-11T01:30:33.802Z,5.22
2018-05-11T01:33:01.281Z,4.40
2018-05-11T01:35:28.773Z,5.25
2018-05-11T01:37:56.235Z,5.10
2018-05-11T01:40:23.717Z,7.65
2018-05-11T01:42:51.213Z,5.00
2018-05-11T01:45:18.707Z,9.68
2018-05-11T01:47:46.193Z,5.45
2018-05-11T01:50:13.826Z,5.72
2018-05-11T01:52:41.320Z,8.05
2018-05-11T01:55:08.796Z,6.20
2018-05-11T01:57:36.270Z,5.12
2018-05-11T02:00:03.763Z,13.57
2018-05-11T02:02:31.275Z,4.78
2018-05-11T02:04:58.762Z,4.35
2018-05-11T02:07:26.378Z,4.00
2018-05-11T02:09:53.854Z,7.10
2018-05-11T02:12:21.354Z,4.80
2018-05-11T02:14:48.838Z,5.07
2018-05-11T02:17:16.023Z,5.73
2018-05-11T02:19:43.521Z,7.40
2018-05-11T02:22:11.021Z,4.45
2018-05-11T02:24:38.502Z,3.75
2018-05-11T02:27:05.692Z,6.80
2018-05-11T02:29:32.890Z,5.77
2018-05-11T02:32:00.077Z,8.33
2018-05-11T02:34:27.301Z,6.20
2018-05-11T02:36:54.684Z,4.33
2018-05-11T02:39:21.882Z,9.80
2018-05-11T02:41:48.849Z,6.13
2018-05-11T02:44:16.342Z,5.93
2018-05-11T02:46:43.814Z,4.82
2018-05-11T02:49:11.296Z,5.65
2018-05-11T02:51:38.791Z,5.10
2018-05-11T02:54:06.455Z,6.37
2018-05-11T02:56:33.705Z,6.35
2018-05-11T02:59:01.204Z,7.07
2018-05-11T03:01:28.875Z,9.40
2018-05-11T03:03:56.364Z,9.95
2018-05-11T03:06:23.830Z,4.50
2018-05-11T03:08:51.318Z,7.03
2018-05-11T03:11:18.515Z,10.37
2018-05-11T03:13:46.004Z,5.03
2018-05-11T03:16:13.479Z,5.43
2018-05-11T03:18:41.015Z,4.15
2018-05-11T03:21:08.687Z,4.30
2018-05-11T03:23:36.164Z,5.80
2018-05-11T03:26:03.665Z,7.22
2018-05-11T03:28:31.144Z,5.07
2018-05-11T03:30:58.339Z,4.10
2018-05-11T03:33:25.801Z,8.35
2018-05-11T03:35:53.287Z,4.30
2018-05-11T03:38:20.766Z,5.12
2018-05-11T03:40:48.253Z,5.60
2018-05-11T03:43:15.736Z,4.30
2018-05-11T03:45:43.240Z,5.50
2018-05-11T03:48:10.720Z,7.43
2018-05-11T03:50:38.195Z,6.30
2018-05-11T03:53:05.669Z,5.85
2018-05-11T03:55:33.148Z,5.25
2018-05-11T03:58:00.360Z,4.13
2018-05-11T04:00:27.869Z,6.37
2018-05-11T04:03:01.086Z,4.65
2018-05-11T04:05:33.847Z,5.53
2018-05-11T04:08:06.845Z,6.18
2018-05-11T04:10:34.039Z,4.37
2018-05-11T04:13:01.562Z,4.80
2018-05-11T04:15:28.757Z,4.27
2018-05-11T04:17:56.233Z,4.00
2018-05-11T04:20:23.716Z,6.37
2018-05-11T04:22:50.902Z,17.73
2018-05-11T04:25:18.108Z,4.77
2018-05-11T04:27:45.360Z,6.03
2018-05-11T04:30:12.897Z,14.32
2018-05-11T04:32:40.554Z,5.75
2018-05-11T04:35:08.046Z,5.85
2018-05-11T04:37:35.532Z,5.10
2018-05-11T04:40:03.034Z,8.80
2018-05-11T04:42:30.528Z,7.37
2018-05-11T04:44:58.055Z,7.03
2018-05-11T04:47:25.543Z,4.72
2018-05-11T04:49:53.049Z,5.75
2018-05-11T04:52:20.533Z,4.37
2018-05-11T04:54:48.008Z,10.57
2018-05-11T04:57:15.213Z,7.00
2018-05-11T04:59:42.690Z,5.32
2018-05-11T05:02:09.882Z,4.73
2018-05-11T05:04:37.079Z,5.27
2018-05-11T05:07:04.288Z,3.93
2018-05-11T05:09:31.475Z,6.03
2018-05-11T05:11:58.664Z,7.70
2018-05-11T05:14:25.863Z,5.37
2018-05-11T05:16:53.045Z,6.07
2018-05-11T05:19:20.083Z,4.17
2018-05-11T05:21:47.185Z,4.97
2018-05-11T05:24:14.382Z,5.57
2018-05-11T05:26:41.591Z,7.30
2018-05-11T05:29:08.780Z,3.50
2018-05-11T05:31:35.971Z,5.87
2018-05-11T05:34:03.161Z,4.50
2018-05-11T05:36:30.353Z,5.30
2018-05-11T05:38:57.550Z,6.20
2018-05-11T05:41:24.757Z,7.20
2018-05-11T05:43:51.970Z,27.43
2018-05-11T05:46:19.641Z,8.73
2018-05-11T05:48:46.842Z,3.67
2018-05-11T05:51:14.044Z,4.13
2018-05-11T05:53:41.236Z,9.13
2018-05-11T05:56:08.412Z,3.33
2018-05-11T05:58:35.675Z,4.70
2018-05-11T06:01:03.001Z,3.27
2018-05-11T06:03:30.197Z,4.07
2018-05-11T06:05:57.397Z,10.00
2018-05-11T06:08:24.361Z,3.77
2018-05-11T06:10:51.626Z,11.63
2018-05-11T06:13:18.997Z,14.80
2018-05-11T06:15:46.281Z,6.20
2018-05-11T06:18:13.587Z,4.23
2018-05-11T06:20:40.789Z,10.40
2018-05-11T06:23:07.978Z,5.37
2018-05-11T06:25:35.181Z,7.00
2018-05-11T06:28:02.400Z,9.20
2018-05-11T06:30:29.582Z,6.10
2018-05-11T06:32:56.855Z,9.70
2018-05-11T06:35:24.044Z,9.30
2018-05-11T06:37:51.271Z,13.17
2018-05-11T06:40:18.584Z,6.90
2018-05-11T06:42:45.802Z,11.43
2018-05-11T06:45:12.994Z,10.90
2018-05-11T06:47:40.209Z,7.00
2018-05-11T06:50:07.397Z,8.23
2018-05-11T06:52:34.654Z,9.23
2018-05-11T06:55:01.871Z,11.73
2018-05-11T06:57:29.135Z,8.20
2018-05-11T06:59:56.351Z,12.40
2018-05-11T07:02:23.550Z,13.63
2018-05-11T07:04:50.759Z,11.73
2018-05-11T07:07:17.946Z,7.23
2018-05-11T07:09:45.152Z,10.97
2018-05-11T07:12:12.355Z,10.80
2018-05-11T07:14:39.572Z,15.17
2018-05-11T07:17:06.852Z,9.10
2018-05-11T07:19:34.095Z,9.83
2018-05-11T07:22:01.438Z,13.23
2018-05-11T07:24:28.689Z,9.90
2018-05-11T07:26:55.890Z,12.47
2018-05-11T07:29:23.084Z,7.03
2018-05-11T07:31:50.322Z,10.43
2018-05-11T07:34:17.532Z,13.10
2018-05-11T07:36:44.764Z,11.43
2018-05-11T07:39:11.992Z,10.13
2018-05-11T07:41:39.222Z,12.53
2018-05-11T07:44:06.406Z,19.33
2018-05-11T07:46:33.660Z,11.30
2018-05-11T07:49:00.855Z,10.80
2018-05-11T07:51:28.111Z,12.03
2018-05-11T07:53:55.470Z,15.60
2018-05-11T07:56:22.675Z,15.10
2018-05-11T07:58:49.881Z,18.13
2018-05-11T08:01:17.080Z,15.00
2018-05-11T08:03:44.286Z,11.70
2018-05-11T08:06:11.522Z,11.83
2018-05-11T08:08:38.735Z,10.93
2018-05-11T08:11:05.930Z,12.47
2018-05-11T08:13:33.135Z,10.07
2018-05-11T08:16:00.368Z,12.80
2018-05-11T08:18:27.656Z,11.60
2018-05-11T08:20:54.870Z,14.47
2018-05-11T08:23:22.121Z,17.73
2018-05-11T08:25:49.338Z,20.83
2018-05-11T08:28:16.540Z,13.90
2018-05-11T08:30:43.827Z,13.37
2018-05-11T08:33:10.787Z,18.03
2018-05-11T08:35:37.991Z,10.30
2018-05-11T08:38:05.214Z,12.10
2018-05-11T08:40:32.409Z,13.77
2018-05-11T08:42:59.615Z,12.30
2018-05-11T08:45:26.806Z,15.30
2018-05-11T08:47:54.039Z,11.00
2018-05-11T08:50:21.262Z,14.00
2018-05-11T08:52:48.466Z,11.00
2018-05-11T08:55:15.899Z,10.13
2018-05-11T08:57:43.108Z,10.87
2018-05-11T09:00:10.307Z,16.30
2018-05-11T09:02:37.501Z,11.90
2018-05-11T09:05:04.738Z,9.20
2018-05-11T09:07:31.923Z,9.93
2018-05-11T09:09:59.149Z,13.93
2018-05-11T09:12:26.377Z,10.73
2018-05-11T09:14:53.625Z,13.57
2018-05-11T09:17:20.804Z,9.77
2018-05-11T09:19:48.025Z,10.30
2018-05-11T09:22:15.245Z,12.77
2018-05-11T09:24:42.454Z,11.27
2018-05-11T09:27:09.662Z,10.50
2018-05-11T09:29:36.867Z,12.00
2018-05-11T09:32:04.068Z,14.10
2018-05-11T09:34:31.275Z,10.57
2018-05-11T09:36:58.475Z,13.50
2018-05-11T09:39:25.737Z,17.23
2018-05-11T09:41:53.885Z,8.97
2018-05-11T09:44:21.111Z,15.90
2018-05-11T09:46:48.330Z,12.00
2018-05-11T09:49:15.542Z,10.37
2018-05-11T09:51:42.920Z,14.30
2018-05-11T09:54:10.120Z,15.70
2018-05-11T09:56:37.359Z,7.20
2018-05-11T09:59:04.581Z,10.47
2018-05-11T10:01:31.760Z,7.57
2018-05-11T10:03:58.964Z,7.53
2018-05-11T10:06:26.165Z,9.70
2018-05-11T10:08:53.479Z,12.13
2018-05-11T10:11:20.731Z,7.93
2018-05-11T10:13:47.962Z,6.40
2018-05-11T10:16:15.318Z,8.93
2018-05-11T10:18:42.531Z,7.40
2018-05-11T10:21:09.758Z,8.80
2018-05-11T10:23:36.953Z,20.80
2018-05-11T10:26:04.142Z,13.27
2018-05-11T10:28:31.358Z,11.40
2018-05-11T10:30:58.329Z,11.47
2018-05-11T10:33:25.520Z,11.47
2018-05-11T10:35:52.722Z,8.63
2018-05-11T10:38:19.934Z,9.80
2018-05-11T10:40:47.142Z,12.53
2018-05-11T10:43:14.363Z,8.90
2018-05-11T10:45:41.684Z,10.77
2018-05-11T10:48:08.898Z,21.73
2018-05-11T10:50:36.083Z,12.70
2018-05-11T10:53:03.316Z,13.70
2018-05-11T10:55:30.505Z,16.33
2018-05-11T10:57:57.711Z,14.00
2018-05-11T11:00:24.925Z,15.37
2018-05-11T11:02:52.146Z,11.73
2018-05-11T11:05:19.348Z,11.80
2018-05-11T11:07:46.551Z,13.20
2018-05-11T11:10:13.743Z,12.67
2018-05-11T11:12:40.938Z,12.60
2018-05-11T11:15:08.135Z,13.17
2018-05-11T11:17:35.124Z,10.50
2018-05-11T11:20:02.343Z,11.17
2018-05-11T11:22:29.725Z,14.27
2018-05-11T11:24:56.931Z,14.10
2018-05-11T11:27:24.150Z,17.33
2018-05-11T11:29:51.364Z,15.00
2018-05-11T11:32:18.784Z,15.43
2018-05-11T11:34:45.991Z,14.13
2018-05-11T11:37:13.415Z,11.77
2018-05-11T11:39:40.637Z,14.20
2018-05-11T11:42:07.876Z,13.53
2018-05-11T11:44:35.264Z,13.63
2018-05-11T11:47:02.495Z,14.43
2018-05-11T11:49:29.685Z,10.93
2018-05-11T11:51:56.905Z,13.70
2018-05-11T11:54:24.097Z,15.07
2018-05-11T11:56:51.299Z,13.07
2018-05-11T11:59:18.506Z,15.13
2018-05-11T12:01:45.689Z,11.10
2018-05-11T12:04:12.884Z,15.10
2018-05-11T12:06:39.861Z,11.57
2018-05-11T12:09:07.071Z,10.10
2018-05-11T12:11:34.259Z,10.93
2018-05-11T12:14:01.674Z,12.33
2018-05-11T12:16:28.869Z,11.07
2018-05-11T12:18:56.078Z,11.30
2018-05-11T12:21:23.280Z,12.43
2018-05-11T12:23:50.473Z,12.13
2018-05-11T12:26:17.708Z,14.43
2018-05-11T12:28:45.081Z,11.60
2018-05-11T12:31:12.309Z,15.00
2018-05-11T12:33:39.504Z,13.83
2018-05-11T12:36:06.723Z,16.73
2018-05-11T12:38:34.669Z,14.33
2018-05-11T12:41:01.963Z,11.57
2018-05-11T12:43:29.294Z,13.30
2018-05-11T12:45:56.511Z,12.87
2018-05-11T12:48:23.738Z,16.47
2018-05-11T12:50:50.939Z,21.33
2018-05-11T12:53:17.975Z,14.17
2018-05-11T12:55:45.183Z,12.23
2018-05-11T12:58:12.388Z,14.30
2018-05-11T13:00:39.621Z,17.80
2018-05-11T13:03:06.802Z,15.10
2018-05-11T13:05:34.033Z,13.20
2018-05-11T13:08:01.233Z,14.67
2018-05-11T13:10:28.468Z,12.57
2018-05-11T13:12:55.716Z,17.90
2018-05-11T13:15:23.098Z,16.63
2018-05-11T13:17:50.314Z,14.70
2018-05-11T13:20:17.518Z,14.33
2018-05-11T13:22:44.737Z,17.93
2018-05-11T13:25:11.930Z,16.07
2018-05-11T13:27:39.159Z,19.43
2018-05-11T13:30:06.366Z,13.90
2018-05-11T13:32:33.598Z,18.50
2018-05-11T13:35:00.810Z,17.17
2018-05-11T13:37:28.006Z,14.37
2018-05-11T13:39:55.225Z,13.97
2018-05-11T13:42:22.540Z,12.80
2018-05-11T13:44:49.746Z,14.40
2018-05-11T13:47:16.971Z,15.50
2018-05-11T13:49:44.169Z,14.53
2018-05-11T13:52:11.386Z,10.13
2018-05-11T13:54:38.590Z,15.63
2018-05-11T13:57:05.793Z,13.03
2018-05-11T13:59:33.005Z,13.53
2018-05-11T14:02:00.206Z,16.63
2018-05-11T14:04:27.413Z,13.57
2018-05-11T14:06:54.366Z,17.80
2018-05-11T14:09:21.602Z,17.07
2018-05-11T14:11:49.758Z,14.87
2018-05-11T14:14:16.955Z,18.67
2018-05-11T14:16:44.161Z,14.60
2018-05-11T14:19:11.394Z,16.80
2018-05-11T14:21:38.631Z,14.60
2018-05-11T14:24:05.828Z,14.53
2018-05-11T14:26:33.020Z,15.57
2018-05-11T14:29:00.238Z,20.87
2018-05-11T14:31:27.286Z,14.37
2018-05-11T14:33:54.509Z,12.90
2018-05-11T14:39:00.642Z,13.33
2018-05-11T14:41:28.832Z,11.53
2018-05-11T14:43:56.087Z,12.63
2018-05-11T14:46:23.288Z,11.40
2018-05-11T14:48:50.512Z,12.60
2018-05-11T14:51:17.484Z,12.40
2018-05-11T14:53:44.687Z,15.50
2018-05-11T14:56:11.883Z,12.13
2018-05-11T14:58:39.483Z,16.63
2018-05-11T15:01:06.813Z,13.13
2018-05-11T15:03:34.202Z,12.57
2018-05-11T15:06:01.406Z,9.90
2018-05-11T15:08:28.722Z,12.00
2018-05-11T15:10:55.919Z,11.53
2018-05-11T15:13:23.138Z,9.93
2018-05-11T15:15:50.355Z,10.60
2018-05-11T15:18:17.566Z,13.70
2018-05-11T15:20:44.782Z,10.27
2018-05-11T15:23:11.984Z,11.17
2018-05-11T15:25:39.206Z,10.47
2018-05-11T15:28:06.413Z,10.17
2018-05-11T15:30:33.699Z,11.13
2018-05-11T15:33:00.883Z,9.80
2018-05-11T15:35:28.095Z,9.83
2018-05-11T15:37:55.286Z,11.07
2018-05-11T15:40:22.577Z,9.97
2018-05-11T15:42:49.978Z,12.03
2018-05-11T15:45:17.207Z,10.17
2018-05-11T15:47:44.480Z,10.90
2018-05-11T15:50:11.753Z,10.97
2018-05-11T15:52:38.979Z,11.50
2018-05-11T15:55:06.168Z,9.70
2018-05-11T15:57:33.363Z,12.67
2018-05-11T16:00:00.567Z,10.27
2018-05-11T16:02:27.786Z,13.40
2018-05-11T16:04:55.011Z,11.10
2018-05-11T16:07:22.221Z,10.60
2018-05-11T16:09:49.455Z,12.77
2018-05-11T16:12:16.662Z,10.10
2018-05-11T16:14:43.864Z,9.50
2018-05-11T16:17:11.075Z,10.03
2018-05-11T16:19:38.271Z,9.53
2018-05-11T16:22:05.478Z,10.30
2018-05-11T16:24:32.663Z,13.73
2018-05-11T16:26:59.728Z,10.43
2018-05-11T16:29:26.967Z,11.00
2018-05-11T16:31:54.169Z,10.00
2018-05-11T16:34:21.394Z,10.37
2018-05-11T16:36:48.647Z,10.00
2018-05-11T16:39:15.855Z,9.60
2018-05-11T16:41:43.063Z,10.90
2018-05-11T16:44:10.262Z,9.40
2018-05-11T16:46:37.477Z,12.10
2018-05-11T16:49:04.666Z,9.73
2018-05-11T16:51:31.881Z,9.30
2018-05-11T16:53:59.133Z,8.03
2018-05-11T16:56:26.494Z,13.90
2018-05-11T16:58:53.687Z,8.40
2018-05-11T17:01:20.893Z,10.53
2018-05-11T17:03:48.123Z,8.13
2018-05-11T17:06:15.342Z,11.67
2018-05-11T17:08:42.620Z,7.70
2018-05-11T17:11:09.864Z,9.67
2018-05-11T17:13:37.081Z,8.67
2018-05-11T17:16:04.277Z,9.70
2018-05-11T17:18:31.482Z,11.77
2018-05-11T17:20:58.704Z,8.87
2018-05-11T17:23:25.880Z,8.37
2018-05-11T17:25:53.103Z,11.70
2018-05-11T17:28:20.310Z,9.20
2018-05-11T17:30:47.492Z,9.77
2018-05-11T17:33:14.699Z,9.00
2018-05-11T17:35:41.659Z,9.43
2018-05-11T17:38:08.937Z,8.77
2018-05-11T17:40:36.146Z,7.63
2018-05-11T17:43:03.339Z,13.10
2018-05-11T17:45:30.522Z,7.63
2018-05-11T17:47:57.731Z,13.53
2018-05-11T17:50:24.920Z,7.93
2018-05-11T17:52:52.131Z,7.50
2018-05-11T17:55:19.317Z,11.93
2018-05-11T17:57:46.509Z,8.00
2018-05-11T18:00:13.705Z,11.10
2018-05-11T18:02:40.919Z,11.10
2018-05-11T18:05:08.149Z,10.53
2018-05-11T18:07:35.345Z,18.60
2018-05-11T18:10:02.687Z,7.77
2018-05-11T18:12:30.156Z,10.87
2018-05-11T18:14:57.373Z,11.00
2018-05-11T18:17:24.571Z,9.00
2018-05-11T18:19:51.780Z,7.77
2018-05-11T18:22:18.986Z,10.57
2018-05-11T18:24:46.184Z,10.67
2018-05-11T18:27:13.413Z,7.73
2018-05-11T18:29:40.603Z,10.07
2018-05-11T18:32:07.827Z,8.40
2018-05-11T18:34:35.038Z,7.40
2018-05-11T18:37:02.238Z,6.77
2018-05-11T18:39:29.435Z,10.03
2018-05-11T18:41:56.643Z,8.13
2018-05-11T18:44:23.825Z,9.10
2018-05-11T18:46:50.815Z,9.23
2018-05-11T18:49:18.003Z,11.70
2018-05-11T18:51:44.953Z,7.63
2018-05-11T18:54:12.434Z,9.40
2018-05-11T18:56:39.593Z,11.43
2018-05-11T18:59:06.926Z,9.83
2018-05-11T19:01:34.145Z,9.43
2018-05-11T19:04:01.553Z,11.20
2018-05-11T19:06:28.769Z,8.20
2018-05-11T19:08:56.077Z,9.67
2018-05-11T19:11:23.383Z,8.90
2018-05-11T19:13:50.638Z,9.30
2018-05-11T19:16:17.916Z,10.17
2018-05-11T19:18:45.118Z,10.73
2018-05-11T19:21:12.372Z,8.07
2018-05-11T19:23:39.565Z,9.50
2018-05-11T19:26:06.810Z,8.43
2018-05-11T19:28:34.277Z,7.80
2018-05-11T19:31:01.495Z,11.37
2018-05-11T19:33:28.715Z,8.63
2018-05-11T19:35:56.115Z,11.10
2018-05-11T19:38:23.097Z,15.53
2018-05-11T19:40:50.289Z,9.63
2018-05-11T19:43:19.444Z,15.63
2018-05-11T19:45:46.664Z,12.50
2018-05-11T19:48:14.113Z,9.33
2018-05-11T19:50:41.346Z,10.03
2018-05-11T19:53:08.538Z,12.63
2018-05-11T19:55:35.743Z,12.57
2018-05-11T19:58:02.979Z,13.23
2018-05-11T20:00:29.946Z,12.47
2018-05-11T20:02:57.163Z,11.77
2018-05-11T20:05:24.355Z,20.10
2018-05-11T20:07:51.586Z,25.27
2018-05-11T20:10:19.042Z,12.90
2018-05-11T20:12:46.721Z,16.83
2018-05-11T20:15:13.958Z,14.30
2018-05-11T20:17:41.178Z,13.17
2018-05-11T20:20:08.374Z,16.20
2018-05-11T20:22:35.583Z,9.03
2018-05-11T20:25:02.861Z,11.10
2018-05-11T20:27:30.262Z,12.90
2018-05-11T20:29:57.457Z,12.00
2018-05-11T20:32:24.761Z,10.40
2018-05-11T20:34:52.045Z,11.23
2018-05-11T20:37:19.254Z,11.73
2018-05-11T20:39:46.513Z,10.17
2018-05-11T20:42:13.732Z,9.80
2018-05-11T20:44:40.942Z,9.47
2018-05-11T20:47:08.168Z,12.70
2018-05-11T20:52:09.012Z,11.53
2018-05-11T20:54:36.218Z,10.73
2018-05-11T20:57:03.425Z,12.93
2018-05-11T20:59:30.622Z,13.00
2018-05-11T21:01:57.860Z,16.80
2018-05-11T21:04:25.070Z,16.63
2018-05-11T21:06:52.283Z,10.17
2018-05-11T21:09:19.486Z,10.33
2018-05-11T21:11:46.699Z,14.97
2018-05-11T21:14:13.910Z,17.53
2018-05-11T21:16:41.140Z,17.93
2018-05-11T21:19:08.353Z,18.03
2018-05-11T21:21:35.561Z,17.07
2018-05-11T21:24:02.767Z,14.60
2018-05-11T21:26:29.954Z,9.70
2018-05-11T21:28:57.154Z,12.00
2018-05-11T21:31:24.333Z,12.47
2018-05-11T21:33:51.545Z,12.87
2018-05-11T21:36:18.757Z,15.30
2018-05-11T21:38:45.730Z,12.90
2018-05-11T21:41:12.987Z,16.73
2018-05-11T21:43:40.359Z,10.00
2018-05-11T21:46:07.592Z,14.20
2018-05-11T21:48:34.866Z,17.23
2018-05-11T21:51:02.081Z,18.13
2018-05-11T21:53:29.288Z,18.10
2018-05-11T21:55:56.490Z,14.57
2018-05-11T21:58:23.709Z,13.60
2018-05-11T22:00:50.910Z,11.67
2018-05-11T22:03:18.122Z,10.70
2018-05-11T22:05:45.335Z,15.37
2018-05-11T22:08:12.537Z,11.03
2018-05-11T22:10:39.746Z,12.40
2018-05-11T22:13:06.960Z,13.00
2018-05-11T22:15:34.165Z,13.90
2018-05-11T22:18:01.372Z,14.63
2018-05-11T22:20:28.587Z,19.37
2018-05-11T22:22:55.775Z,19.40
2018-05-11T22:25:22.958Z,10.60
2018-05-11T22:27:50.154Z,11.60
2018-05-11T22:30:17.361Z,12.97
2018-05-11T22:32:44.556Z,13.27
2018-05-11T22:35:11.753Z,12.33
2018-05-11T22:37:39.008Z,12.03
2018-05-11T22:40:06.214Z,14.00
2018-05-11T22:42:33.399Z,11.60
2018-05-11T22:45:00.604Z,13.17
2018-05-11T22:47:27.800Z,11.03
2018-05-11T22:49:55.011Z,15.70
2018-05-11T22:52:22.207Z,13.37
2018-05-11T22:54:49.393Z,14.20
2018-05-11T22:57:16.615Z,11.83
2018-05-11T22:59:43.813Z,12.13
2018-05-11T23:02:11.012Z,12.83
2018-05-11T23:04:38.250Z,13.20
2018-05-11T23:07:05.465Z,17.97
2018-05-11T23:09:32.657Z,16.83
2018-05-11T23:11:59.896Z,13.57
2018-05-11T23:14:27.106Z,11.10
2018-05-11T23:16:54.337Z,13.40
2018-05-11T23:19:21.543Z,12.50
2018-05-11T23:21:48.729Z,12.50
2018-05-11T23:24:15.961Z,12.83
2018-05-11T23:26:42.930Z,16.83
2018-05-11T23:29:10.146Z,13.67
2018-05-11T23:31:37.354Z,14.67
2018-05-11T23:34:04.556Z,13.90
2018-05-11T23:36:31.757Z,14.37
2018-05-11T23:38:58.931Z,11.47
2018-05-11T23:41:26.142Z,12.23
2018-05-11T23:43:53.334Z,15.53
2018-05-11T23:46:20.554Z,13.53
2018-05-11T23:48:47.760Z,14.03
2018-05-11T23:51:14.994Z,20.40
2018-05-11T23:53:42.189Z,15.60
2018-05-11T23:56:09.390Z,16.03
2018-05-11T23:58:36.599Z,11.37
